createdAt,value
2018-04-12T00:01:58.505Z,11.60
2018-04-12T00:04:26.323Z,11.50
2018-04-12T00:06:54.936Z,11.50
2018-04-12T00:09:22.731Z,11.50
2018-04-12T00:11:50.525Z,11.40
2018-04-12T00:14:19.077Z,11.40
2018-04-12T00:16:46.817Z,11.40
2018-04-12T00:19:14.809Z,11.30
2018-04-12T00:21:42.686Z,11.20
2018-04-12T00:24:10.569Z,11.10
2018-04-12T00:26:38.455Z,11.10
2018-04-12T00:29:07.072Z,11.00
2018-04-12T00:31:34.919Z,11.00
2018-04-12T00:34:02.840Z,11.10
2018-04-12T00:36:30.665Z,11.00
2018-04-12T00:38:58.525Z,11.00
2018-04-12T00:41:26.431Z,11.00
2018-04-12T00:43:54.290Z,10.90
2018-04-12T00:46:22.164Z,10.90
2018-04-12T00:48:50.091Z,10.90
2018-04-12T00:51:17.967Z,10.80
2018-04-12T00:53:57.855Z,10.80
2018-04-12T00:56:25.739Z,10.80
2018-04-12T00:58:53.631Z,10.80
2018-04-12T01:01:22.319Z,10.80
2018-04-12T01:03:50.241Z,10.80
2018-04-12T01:06:18.080Z,10.80
2018-04-12T01:08:45.969Z,10.80
2018-04-12T01:11:13.761Z,10.80
2018-04-12T01:13:41.578Z,10.80
2018-04-12T01:16:09.492Z,10.80
2018-04-12T01:18:37.779Z,10.80
2018-04-12T01:21:06.419Z,10.70
2018-04-12T01:23:35.140Z,10.70
2018-04-12T01:26:02.969Z,10.70
2018-04-12T01:28:30.776Z,10.70
2018-04-12T01:30:59.655Z,10.70
2018-04-12T01:33:27.626Z,10.70
2018-04-12T01:35:55.563Z,10.70
2018-04-12T01:38:23.488Z,10.70
2018-04-12T01:40:52.118Z,10.70
2018-04-12T01:43:19.979Z,10.70
2018-04-12T01:45:47.930Z,10.70
2018-04-12T01:48:15.784Z,10.70
2018-04-12T01:50:43.650Z,10.70
2018-04-12T01:53:11.619Z,10.70
2018-04-12T01:55:39.489Z,10.70
2018-04-12T01:58:07.387Z,10.70
2018-04-12T02:00:35.312Z,10.80
2018-04-12T02:03:03.934Z,10.70
2018-04-12T02:05:31.740Z,10.70
2018-04-12T02:07:59.675Z,10.80
2018-04-12T02:10:27.651Z,10.80
2018-04-12T02:12:55.534Z,10.80
2018-04-12T02:15:24.289Z,10.90
2018-04-12T02:17:52.243Z,10.80
2018-04-12T02:20:20.076Z,10.80
2018-04-12T02:22:48.020Z,10.80
2018-04-12T02:25:15.864Z,10.80
2018-04-12T02:27:43.727Z,10.70
2018-04-12T02:30:11.719Z,10.80
2018-04-12T02:32:39.515Z,10.70
2018-04-12T02:35:08.172Z,10.70
2018-04-12T02:37:36.902Z,10.60
2018-04-12T02:40:04.769Z,10.60
2018-04-12T02:42:33.421Z,10.60
2018-04-12T02:45:01.304Z,10.60
2018-04-12T02:47:29.203Z,10.60
2018-04-12T02:49:57.062Z,10.70
2018-04-12T02:52:25.728Z,10.70
2018-04-12T02:54:54.905Z,10.60
2018-04-12T02:57:22.804Z,10.60
2018-04-12T02:59:51.540Z,10.50
2018-04-12T03:02:19.382Z,10.50
2018-04-12T03:04:47.125Z,10.50
2018-04-12T03:07:15.720Z,10.40
2018-04-12T03:09:43.557Z,10.40
2018-04-12T03:12:11.407Z,10.40
2018-04-12T03:14:39.339Z,10.40
2018-04-12T03:17:07.063Z,10.40
2018-04-12T03:19:35.719Z,10.30
2018-04-12T03:22:03.526Z,10.30
2018-04-12T03:24:32.176Z,10.30
2018-04-12T03:26:59.959Z,10.30
2018-04-12T03:29:27.816Z,10.20
2018-04-12T03:31:55.718Z,10.20
2018-04-12T03:34:23.474Z,10.10
2018-04-12T03:36:52.132Z,10.00
2018-04-12T03:39:19.959Z,10.00
2018-04-12T03:41:47.837Z,10.00
2018-04-12T03:44:15.644Z,10.00
2018-04-12T03:46:44.443Z,10.00
2018-04-12T03:49:13.009Z,10.00
2018-04-12T03:51:41.780Z,10.00
2018-04-12T03:54:09.722Z,9.90
2018-04-12T03:56:37.551Z,10.00
2018-04-12T03:59:05.490Z,10.10
2018-04-12T04:01:33.280Z,10.10
2018-04-12T04:04:01.903Z,10.10
2018-04-12T04:06:29.782Z,10.10
2018-04-12T04:08:57.685Z,10.10
2018-04-12T04:11:25.554Z,10.10
2018-04-12T04:13:54.217Z,10.10
2018-04-12T04:16:33.869Z,10.00
2018-04-12T04:19:13.655Z,10.00
2018-04-12T04:21:41.513Z,10.10
2018-04-12T04:24:10.146Z,10.10
2018-04-12T04:26:37.994Z,10.10
2018-04-12T04:29:05.799Z,10.10
2018-04-12T04:31:33.519Z,10.10
2018-04-12T04:34:01.438Z,10.10
2018-04-12T04:36:29.254Z,10.10
2018-04-12T04:38:57.101Z,10.20
2018-04-12T04:41:25.789Z,10.00
2018-04-12T04:43:53.771Z,10.10
2018-04-12T04:46:21.613Z,10.00
2018-04-12T04:48:50.250Z,10.00
2018-04-12T04:51:17.989Z,10.10
2018-04-12T04:53:45.820Z,10.10
2018-04-12T04:56:13.683Z,10.10
2018-04-12T04:58:41.484Z,10.10
2018-04-12T05:01:09.350Z,10.20
2018-04-12T05:03:37.272Z,10.20
2018-04-12T05:06:05.091Z,10.20
2018-04-12T05:08:32.955Z,10.20
2018-04-12T05:11:00.882Z,10.30
2018-04-12T05:13:28.790Z,10.30
2018-04-12T05:15:56.569Z,10.30
2018-04-12T05:18:24.493Z,10.30
2018-04-12T05:20:53.085Z,10.30
2018-04-12T05:23:21.655Z,10.30
2018-04-12T05:25:49.561Z,10.30
2018-04-12T05:28:17.306Z,10.40
2018-04-12T05:30:46.058Z,10.40
2018-04-12T05:33:13.858Z,10.40
2018-04-12T05:35:42.438Z,10.40
2018-04-12T05:38:11.026Z,10.50
2018-04-12T05:40:41.668Z,10.50
2018-04-12T05:43:15.739Z,10.40
2018-04-12T05:45:48.442Z,10.50
2018-04-12T05:48:19.546Z,10.60
2018-04-12T05:50:49.820Z,10.50
2018-04-12T05:53:25.899Z,10.60
2018-04-12T06:05:29.143Z,10.60
2018-04-12T06:07:56.979Z,10.60
2018-04-12T06:10:25.482Z,10.60
2018-04-12T06:12:54.003Z,10.60
2018-04-12T06:15:21.820Z,10.60
2018-04-12T06:17:50.507Z,10.70
2018-04-12T06:20:19.111Z,10.70
2018-04-12T06:22:47.068Z,10.60
2018-04-12T06:25:15.642Z,10.70
2018-04-12T06:27:44.252Z,10.70
2018-04-12T06:30:12.104Z,10.70
2018-04-12T06:32:39.990Z,10.80
2018-04-12T06:35:07.761Z,10.80
2018-04-12T06:37:35.495Z,10.90
2018-04-12T06:40:03.357Z,10.90
2018-04-12T06:42:31.934Z,10.90
2018-04-12T06:45:00.669Z,11.00
2018-04-12T06:47:28.589Z,11.00
2018-04-12T06:49:57.233Z,11.30
2018-04-12T06:52:24.975Z,11.30
2018-04-12T06:54:52.975Z,11.40
2018-04-12T06:57:20.748Z,11.60
2018-04-12T06:59:48.626Z,11.70
2018-04-12T07:02:17.219Z,11.90
2018-04-12T07:04:45.798Z,12.10
2018-04-12T07:07:14.446Z,12.30
2018-04-12T07:09:42.295Z,12.30
2018-04-12T07:12:10.085Z,12.50
2018-04-12T07:14:37.888Z,12.60
2018-04-12T07:17:06.436Z,12.80
2018-04-12T07:19:34.328Z,12.80
2018-04-12T07:22:02.166Z,12.80
2018-04-12T07:24:29.931Z,12.90
2018-04-12T07:26:57.853Z,12.90
2018-04-12T07:29:26.511Z,12.90
2018-04-12T07:31:54.297Z,12.90
2018-04-12T07:34:22.998Z,12.90
2018-04-12T07:36:50.766Z,12.90
2018-04-12T07:39:18.572Z,12.90
2018-04-12T07:41:46.470Z,13.00
2018-04-12T07:44:15.030Z,13.10
2018-04-12T07:46:42.834Z,13.10
2018-04-12T07:49:11.397Z,13.00
2018-04-12T07:51:39.242Z,13.00
2018-04-12T07:54:07.275Z,13.00
2018-04-12T07:56:35.193Z,13.00
2018-04-12T07:59:03.042Z,13.10
2018-04-12T08:01:30.910Z,13.20
2018-04-12T08:03:58.798Z,13.20
2018-04-12T08:06:26.668Z,13.30
2018-04-12T08:08:54.407Z,13.30
2018-04-12T08:11:22.243Z,13.30
2018-04-12T08:13:50.097Z,13.30
2018-04-12T08:16:17.916Z,13.30
2018-04-12T08:18:45.776Z,13.30
2018-04-12T08:21:13.523Z,13.30
2018-04-12T08:23:41.467Z,13.30
2018-04-12T08:26:09.240Z,13.30
2018-04-12T08:28:37.137Z,13.40
2018-04-12T08:31:04.954Z,13.40
2018-04-12T08:33:32.685Z,13.40
2018-04-12T08:36:00.616Z,13.40
2018-04-12T08:38:28.437Z,13.40
2018-04-12T08:40:56.967Z,13.20
2018-04-12T08:43:24.725Z,13.20
2018-04-12T08:45:52.591Z,13.10
2018-04-12T08:48:20.380Z,13.00
2018-04-12T08:50:48.301Z,13.00
2018-04-12T08:53:16.123Z,13.00
2018-04-12T08:55:45.455Z,13.00
2018-04-12T08:58:13.233Z,13.00
2018-04-12T09:00:41.002Z,12.90
2018-04-12T09:03:08.849Z,12.90
2018-04-12T09:05:36.658Z,12.90
2018-04-12T09:08:04.486Z,12.80
2018-04-12T09:10:33.219Z,12.90
2018-04-12T09:13:01.073Z,12.90
2018-04-12T09:15:28.853Z,12.90
2018-04-12T09:17:56.791Z,12.80
2018-04-12T09:20:26.059Z,12.80
2018-04-12T09:22:53.881Z,12.80
2018-04-12T09:25:21.755Z,12.80
2018-04-12T09:27:49.595Z,12.80
2018-04-12T09:30:17.490Z,12.80
2018-04-12T09:32:45.268Z,12.70
2018-04-12T09:35:13.033Z,12.50
2018-04-12T09:37:40.826Z,12.50
2018-04-12T09:40:09.457Z,12.30
2018-04-12T09:42:37.420Z,12.30
2018-04-12T09:45:05.213Z,12.10
2018-04-12T09:47:33.098Z,12.00
2018-04-12T09:50:00.913Z,11.90
2018-04-12T09:52:28.721Z,11.80
2018-04-12T09:54:56.669Z,11.70
2018-04-12T09:57:24.577Z,11.80
2018-04-12T09:59:53.315Z,11.90
2018-04-12T10:02:26.917Z,11.90
2018-04-12T10:04:55.638Z,12.00
2018-04-12T10:10:24.669Z,12.20
2018-04-12T10:12:53.249Z,12.30
2018-04-12T10:15:21.902Z,12.30
2018-04-12T10:17:49.777Z,12.30
2018-04-12T10:20:17.558Z,12.30
2018-04-12T10:22:45.415Z,12.30
2018-04-12T10:25:13.243Z,12.30
2018-04-12T10:27:41.100Z,12.30
2018-04-12T10:30:08.938Z,12.40
2018-04-12T10:32:37.521Z,12.50
2018-04-12T10:35:06.149Z,12.60
2018-04-12T10:37:33.887Z,12.50
2018-04-12T10:40:01.673Z,12.60
2018-04-12T10:42:29.547Z,12.70
2018-04-12T10:44:57.524Z,12.70
2018-04-12T10:47:25.287Z,12.80
2018-04-12T10:49:53.096Z,12.90
2018-04-12T10:52:21.736Z,13.10
2018-04-12T10:54:49.589Z,13.10
2018-04-12T10:57:17.473Z,13.30
2018-04-12T10:59:45.313Z,13.30
2018-04-12T11:02:13.206Z,13.30
2018-04-12T11:04:41.054Z,13.30
2018-04-12T11:07:08.900Z,13.40
2018-04-12T11:09:37.031Z,13.40
2018-04-12T11:12:04.794Z,13.40
2018-04-12T11:14:32.711Z,13.40
2018-04-12T11:17:00.511Z,13.40
2018-04-12T11:19:28.279Z,13.50
2018-04-12T11:21:56.161Z,13.50
2018-04-12T11:24:24.054Z,13.40
2018-04-12T11:26:52.722Z,13.50
2018-04-12T11:29:20.714Z,13.50
2018-04-12T11:31:49.343Z,13.60
2018-04-12T11:34:17.247Z,13.60
2018-04-12T11:36:45.787Z,13.70
2018-04-12T11:39:13.567Z,13.70
2018-04-12T11:41:41.366Z,13.80
2018-04-12T11:44:09.177Z,13.80
2018-04-12T11:46:37.093Z,13.80
2018-04-12T11:49:05.737Z,14.30
2018-04-12T11:51:33.570Z,14.30
2018-04-12T11:54:02.131Z,14.10
2018-04-12T11:56:30.678Z,14.00
2018-04-12T11:58:58.502Z,14.00
2018-04-12T12:01:27.128Z,13.80
2018-04-12T12:03:55.023Z,13.80
2018-04-12T12:06:23.775Z,13.80
2018-04-12T12:08:51.658Z,13.70
2018-04-12T12:11:19.621Z,13.70
2018-04-12T12:13:47.490Z,13.60
2018-04-12T12:16:15.244Z,13.70
2018-04-12T12:18:43.120Z,13.70
2018-04-12T12:21:10.943Z,13.60
2018-04-12T12:23:39.521Z,13.60
2018-04-12T12:26:07.409Z,13.60
2018-04-12T12:28:35.393Z,13.60
2018-04-12T12:31:03.322Z,13.60
2018-04-12T12:33:32.040Z,13.60
2018-04-12T12:35:59.860Z,13.60
2018-04-12T12:38:27.699Z,13.60
2018-04-12T12:40:55.726Z,13.60
2018-04-12T12:43:23.649Z,13.60
2018-04-12T12:45:51.490Z,13.60
2018-04-12T12:48:19.268Z,13.60
2018-04-12T12:50:47.252Z,13.70
2018-04-12T12:53:15.165Z,13.60
2018-04-12T12:55:43.081Z,13.60
2018-04-12T12:58:10.916Z,13.60
2018-04-12T13:00:38.702Z,13.60
2018-04-12T13:03:06.634Z,13.60
2018-04-12T13:05:34.718Z,13.70
2018-04-12T13:08:02.640Z,13.80
2018-04-12T13:10:30.604Z,13.80
2018-04-12T13:12:58.401Z,13.80
2018-04-12T13:15:26.953Z,14.00
2018-04-12T13:17:54.756Z,14.00
2018-04-12T13:20:22.613Z,14.20
2018-04-12T13:22:51.217Z,14.40
2018-04-12T13:25:19.214Z,14.30
2018-04-12T13:27:47.164Z,14.50
2018-04-12T13:30:15.024Z,14.50
2018-04-12T13:32:42.897Z,14.60
2018-04-12T13:35:10.710Z,14.60
2018-04-12T13:37:38.577Z,14.60
2018-04-12T13:40:06.409Z,14.50
2018-04-12T13:42:35.254Z,14.40
2018-04-12T13:45:03.892Z,14.20
2018-04-12T13:47:35.914Z,14.20
2018-04-12T13:50:04.513Z,14.10
2018-04-12T13:52:34.372Z,14.10
2018-04-12T13:55:02.228Z,14.10
2018-04-12T13:57:31.603Z,14.00
2018-04-12T13:59:59.449Z,14.00
2018-04-12T14:02:27.372Z,14.00
2018-04-12T14:04:55.184Z,14.00
2018-04-12T14:07:23.039Z,13.90
2018-04-12T14:09:51.638Z,13.90
2018-04-12T14:12:19.423Z,13.90
2018-04-12T14:14:47.271Z,13.90
2018-04-12T14:17:15.086Z,13.90
2018-04-12T14:19:42.904Z,13.90
2018-04-12T14:22:10.779Z,13.90
2018-04-12T14:24:38.524Z,13.90
2018-04-12T14:27:07.137Z,13.90
2018-04-12T14:29:35.006Z,13.90
2018-04-12T14:32:02.766Z,14.00
2018-04-12T14:34:30.594Z,14.00
2018-04-12T14:36:59.166Z,14.00
2018-04-12T14:39:27.217Z,14.00
2018-04-12T14:41:55.034Z,13.90
2018-04-12T14:44:22.851Z,13.90
2018-04-12T14:46:50.751Z,13.90
2018-04-12T14:49:19.327Z,13.80
2018-04-12T14:51:47.878Z,13.80
2018-04-12T14:54:19.089Z,13.80
2018-04-12T14:56:43.498Z,13.80
2018-04-12T14:59:12.081Z,13.70
2018-04-12T15:01:39.887Z,13.70
2018-04-12T15:04:08.471Z,13.60
2018-04-12T15:06:36.333Z,13.60
2018-04-12T15:09:04.278Z,13.50
2018-04-12T15:11:32.073Z,13.50
2018-04-12T15:14:00.699Z,13.50
2018-04-12T15:16:28.548Z,13.50
2018-04-12T15:18:56.460Z,13.40
2018-04-12T15:21:24.329Z,13.40
2018-04-12T15:23:52.284Z,13.40
2018-04-12T15:26:20.190Z,13.40
2018-04-12T15:28:48.178Z,13.40
2018-04-12T15:31:15.955Z,13.30
2018-04-12T15:33:43.822Z,13.30
2018-04-12T15:36:11.672Z,13.30
2018-04-12T15:38:40.195Z,13.30
2018-04-12T15:41:07.975Z,13.30
2018-04-12T15:43:35.774Z,13.20
2018-04-12T15:46:04.380Z,13.20
2018-04-12T15:48:32.268Z,13.20
2018-04-12T15:51:00.076Z,13.10
2018-04-12T15:53:27.875Z,13.10
2018-04-12T15:55:55.786Z,13.10
2018-04-12T15:58:23.616Z,13.10
2018-04-12T16:00:51.453Z,13.20
2018-04-12T16:03:19.237Z,13.20
2018-04-12T16:05:47.832Z,13.10
2018-04-12T16:08:15.672Z,13.10
2018-04-12T16:10:44.298Z,13.00
2018-04-12T16:13:12.155Z,13.00
2018-04-12T16:15:40.015Z,13.00
2018-04-12T16:18:07.977Z,13.00
2018-04-12T16:20:35.854Z,13.00
2018-04-12T16:23:03.753Z,13.00
2018-04-12T16:25:31.638Z,12.90
2018-04-12T16:27:59.469Z,12.90
2018-04-12T16:30:27.493Z,12.90
2018-04-12T16:32:55.255Z,13.00
2018-04-12T16:35:23.066Z,13.00
2018-04-12T16:37:50.952Z,13.00
2018-04-12T16:40:18.706Z,13.00
2018-04-12T16:42:46.644Z,13.00
2018-04-12T16:45:15.416Z,12.90
2018-04-12T16:47:44.141Z,12.80
2018-04-12T16:50:12.118Z,12.80
2018-04-12T16:52:39.985Z,12.80
2018-04-12T16:55:07.831Z,12.80
2018-04-12T16:57:35.756Z,12.70
2018-04-12T17:00:03.728Z,12.60
2018-04-12T17:02:31.669Z,12.30
2018-04-12T17:04:59.515Z,12.20
2018-04-12T17:07:27.331Z,12.10
2018-04-12T17:09:55.229Z,12.00
2018-04-12T17:12:23.039Z,11.80
2018-04-12T17:14:50.973Z,11.70
2018-04-12T17:17:18.957Z,11.60
2018-04-12T17:19:46.904Z,11.60
2018-04-12T17:22:15.593Z,11.60
2018-04-12T17:24:43.395Z,11.60
2018-04-12T17:27:11.260Z,11.60
2018-04-12T17:29:39.154Z,11.50
2018-04-12T17:32:06.976Z,11.50
2018-04-12T17:34:34.849Z,11.40
2018-04-12T17:37:02.655Z,11.20
2018-04-12T17:39:30.537Z,11.20
2018-04-12T17:42:00.785Z,11.10
2018-04-12T17:44:29.355Z,11.10
2018-04-12T17:47:00.235Z,11.00
2018-04-12T17:49:28.022Z,11.00
2018-04-12T17:51:55.922Z,11.00
2018-04-12T17:54:25.691Z,11.10
2018-04-12T17:56:53.491Z,11.20
2018-04-12T17:59:22.155Z,11.10
2018-04-12T18:01:50.501Z,11.10
2018-04-12T18:04:19.228Z,11.10
2018-04-12T18:06:47.085Z,10.90
2018-04-12T18:09:15.205Z,10.80
2018-04-12T18:11:43.102Z,10.80
2018-04-12T18:14:10.939Z,10.80
2018-04-12T18:16:38.698Z,10.70
2018-04-12T18:19:07.637Z,10.60
2018-04-12T18:21:35.457Z,10.60
2018-04-12T18:24:03.345Z,10.60
2018-04-12T18:26:31.173Z,10.60
2018-04-12T18:28:58.985Z,10.60
2018-04-12T18:31:27.642Z,10.50
2018-04-12T18:33:55.523Z,10.50
2018-04-12T18:36:23.427Z,10.40
2018-04-12T18:38:51.362Z,10.40
2018-04-12T18:41:19.232Z,10.50
2018-04-12T18:43:47.246Z,10.60
2018-04-12T18:46:16.011Z,10.70
2018-04-12T18:48:43.799Z,10.70
2018-04-12T18:51:11.685Z,10.70
2018-04-12T18:53:40.270Z,10.80
2018-04-12T18:56:08.898Z,10.70
2018-04-12T18:58:36.809Z,10.70
2018-04-12T19:01:04.563Z,10.80
2018-04-12T19:03:32.582Z,10.70
2018-04-12T19:06:00.371Z,10.80
2018-04-12T19:08:28.135Z,10.80
2018-04-12T19:10:56.015Z,10.80
2018-04-12T19:13:23.877Z,10.80
2018-04-12T19:15:51.971Z,10.80
2018-04-12T19:18:19.888Z,10.80
2018-04-12T19:20:47.748Z,10.80
2018-04-12T19:23:15.542Z,10.80
2018-04-12T19:25:43.356Z,10.80
2018-04-12T19:28:11.959Z,10.80
2018-04-12T19:30:39.841Z,10.80
2018-04-12T19:33:07.702Z,10.70
2018-04-12T19:35:35.594Z,10.70
2018-04-12T19:38:03.331Z,10.70
2018-04-12T19:40:31.603Z,10.70
2018-04-12T19:43:01.323Z,10.60
2018-04-12T19:45:29.261Z,10.60
2018-04-12T19:47:57.957Z,10.60
2018-04-12T19:50:26.661Z,10.60
2018-04-12T19:52:54.577Z,10.60
2018-04-12T19:55:22.447Z,10.60
2018-04-12T19:57:51.321Z,10.50
2018-04-12T20:00:19.204Z,10.50
2018-04-12T20:02:46.990Z,10.50
2018-04-12T20:05:18.597Z,10.50
2018-04-12T20:07:47.520Z,10.50
2018-04-12T20:10:16.267Z,10.50
2018-04-12T20:12:46.297Z,10.50
2018-04-12T20:15:15.845Z,10.50
2018-04-12T20:17:50.742Z,10.40
2018-04-12T20:20:18.735Z,10.40
2018-04-12T20:22:46.702Z,10.40
2018-04-12T20:25:16.700Z,10.40
2018-04-12T20:27:45.497Z,10.40
2018-04-12T20:30:15.737Z,10.40
2018-04-12T20:32:45.602Z,10.40
2018-04-12T20:35:14.369Z,10.40
2018-04-12T20:37:42.303Z,10.30
2018-04-12T20:40:11.023Z,10.40
2018-04-12T20:42:39.007Z,10.40
2018-04-12T20:45:06.783Z,10.40
2018-04-12T20:47:34.666Z,10.30
2018-04-12T20:50:02.567Z,10.30
2018-04-12T20:52:30.810Z,10.20
2018-04-12T20:54:59.488Z,10.20
2018-04-12T20:57:28.329Z,10.10
2018-04-12T21:00:02.664Z,10.10
2018-04-12T21:02:32.554Z,10.10
2018-04-12T21:05:04.342Z,10.10
2018-04-12T21:07:34.467Z,10.10
2018-04-12T21:10:02.529Z,10.10
2018-04-12T21:12:32.938Z,10.10
2018-04-12T21:15:03.566Z,10.10
2018-04-12T21:17:31.362Z,10.10
2018-04-12T21:19:59.216Z,10.10
2018-04-12T21:22:27.092Z,10.10
2018-04-12T21:24:54.981Z,10.00
2018-04-12T21:27:23.613Z,9.90
2018-04-12T21:29:51.532Z,9.90
2018-04-12T21:32:20.290Z,9.90
2018-04-12T21:34:48.530Z,9.90
2018-04-12T21:37:16.423Z,9.90
2018-04-12T21:39:45.438Z,9.90
2018-04-12T21:42:13.356Z,9.90
2018-04-12T21:44:41.071Z,9.90
2018-04-12T21:47:10.726Z,9.90
2018-04-12T21:49:38.608Z,9.90
2018-04-12T21:52:07.238Z,9.90
2018-04-12T21:54:35.085Z,9.90
2018-04-12T21:57:02.872Z,9.90
2018-04-12T21:59:30.706Z,9.90
2018-04-12T22:01:59.352Z,9.90
2018-04-12T22:04:27.185Z,9.90
2018-04-12T22:06:54.969Z,9.90
2018-04-12T22:09:22.851Z,9.90
2018-04-12T22:11:50.651Z,9.70
2018-04-12T22:14:19.253Z,9.60
2018-04-12T22:16:47.060Z,9.50
2018-04-12T22:19:14.914Z,9.50
2018-04-12T22:21:42.668Z,9.60
2018-04-12T22:24:10.482Z,9.60
2018-04-12T22:26:38.333Z,9.50
2018-04-12T22:29:06.064Z,9.60
2018-04-12T22:31:33.885Z,9.60
2018-04-12T22:34:02.440Z,9.60
2018-04-12T22:36:30.304Z,9.60
2018-04-12T22:38:58.132Z,9.70
2018-04-12T22:41:26.106Z,9.70
2018-04-12T22:43:53.863Z,9.70
2018-04-12T22:46:21.636Z,9.70
2018-04-12T22:48:49.506Z,9.70
2018-04-12T22:51:17.346Z,9.70
2018-04-12T22:53:45.936Z,9.80
2018-04-12T22:56:14.505Z,9.70
2018-04-12T22:58:43.110Z,9.70
2018-04-12T23:01:10.861Z,9.70
2018-04-12T23:03:39.453Z,9.70
2018-04-12T23:06:08.008Z,9.70
2018-04-12T23:08:35.804Z,9.70
2018-04-12T23:11:03.646Z,9.70
2018-04-12T23:13:31.441Z,9.70
2018-04-12T23:15:59.203Z,9.80
2018-04-12T23:18:26.977Z,9.70
2018-04-12T23:20:55.669Z,9.70
2018-04-12T23:23:23.431Z,9.70
2018-04-12T23:25:51.275Z,9.60
2018-04-12T23:28:19.853Z,9.60
2018-04-12T23:30:47.784Z,9.50
2018-04-12T23:33:15.533Z,9.50
2018-04-12T23:35:43.304Z,9.50
2018-04-12T23:38:11.501Z,9.50
2018-04-12T23:40:40.961Z,9.40
2018-04-12T23:43:09.110Z,9.40
2018-04-12T23:45:37.743Z,9.30
2018-04-12T23:48:05.551Z,9.20
2018-04-12T23:50:34.172Z,9.10
2018-04-12T23:53:02.019Z,9.10
2018-04-12T23:55:29.891Z,9.10
2018-04-12T23:57:57.868Z,9.10
